sensor_id;sensor_type;location;lat;lon;timestamp;P1;durP1;ratioP1;P2;durP2;ratioP2
11394;SDS011;5753;54.402;10.220;2022-09-29T00:00:35;12.00;;;7.95;;
11394;SDS011;5753;54.402;10.220;2022-09-29T00:03:01;10.75;;;8.77;;
11394;SDS011;5753;54.402;10.220;2022-09-29T00:05:28;8.82;;;7.20;;
11394;SDS011;5753;54.402;10.220;2022-09-29T00:07:54;21.33;;;8.52;;
11394;SDS011;5753;54.402;10.220;2022-09-29T00:10:20;7.40;;;6.65;;
11394;SDS011;5753;54.402;10.220;2022-09-29T00:12:47;10.43;;;6.82;;
11394;SDS011;5753;54.402;10.220;2022-09-29T00:15:14;7.50;;;6.82;;
11394;SDS011;5753;54.402;10.220;2022-09-29T00:17:40;10.00;;;7.05;;
11394;SDS011;5753;54.402;10.220;2022-09-29T00:20:06;14.50;;;10.20;;
11394;SDS011;5753;54.402;10.220;2022-09-29T00:22:33;9.13;;;6.70;;
11394;SDS011;5753;54.402;10.220;2022-09-29T00:24:59;10.55;;;9.13;;
11394;SDS011;5753;54.402;10.220;2022-09-29T00:27:25;11.82;;;7.88;;
11394;SDS011;5753;54.402;10.220;2022-09-29T00:29:52;11.20;;;8.50;;
11394;SDS011;5753;54.402;10.220;2022-09-29T00:32:18;11.88;;;8.75;;
11394;SDS011;5753;54.402;10.220;2022-09-29T00:34:44;9.68;;;7.22;;
11394;SDS011;5753;54.402;10.220;2022-09-29T00:37:10;10.68;;;8.38;;
11394;SDS011;5753;54.402;10.220;2022-09-29T00:39:36;18.02;;;7.40;;
11394;SDS011;5753;54.402;10.220;2022-09-29T00:42:02;9.98;;;8.35;;
11394;SDS011;5753;54.402;10.220;2022-09-29T00:44:53;11.18;;;8.70;;
11394;SDS011;5753;54.402;10.220;2022-09-29T00:47:22;10.73;;;8.48;;
11394;SDS011;5753;54.402;10.220;2022-09-29T00:49:54;9.13;;;7.88;;
11394;SDS011;5753;54.402;10.220;2022-09-29T00:52:34;10.23;;;6.82;;
11394;SDS011;5753;54.402;10.220;2022-09-29T00:55:13;10.75;;;8.57;;
11394;SDS011;5753;54.402;10.220;2022-09-29T00:58:09;15.43;;;9.13;;
11394;SDS011;5753;54.402;10.220;2022-09-29T01:00:37;8.45;;;6.93;;
11394;SDS011;5753;54.402;10.220;2022-09-29T01:03:05;9.75;;;7.22;;
11394;SDS011;5753;54.402;10.220;2022-09-29T01:05:38;12.65;;;10.23;;
11394;SDS011;5753;54.402;10.220;2022-09-29T01:08:13;25.00;;;8.52;;
11394;SDS011;5753;54.402;10.220;2022-09-29T01:10:53;9.93;;;7.53;;
11394;SDS011;5753;54.402;10.220;2022-09-29T01:13:21;13.60;;;9.60;;
11394;SDS011;5753;54.402;10.220;2022-09-29T01:15:48;10.23;;;8.38;;
11394;SDS011;5753;54.402;10.220;2022-09-29T01:18:14;11.85;;;8.23;;
11394;SDS011;5753;54.402;10.220;2022-09-29T01:21:05;13.00;;;9.52;;
11394;SDS011;5753;54.402;10.220;2022-09-29T01:29:19;10.82;;;9.45;;
11394;SDS011;5753;54.402;10.220;2022-09-29T01:31:57;12.40;;;10.82;;
11394;SDS011;5753;54.402;10.220;2022-09-29T01:40:29;12.63;;;7.15;;
11394;SDS011;5753;54.402;10.220;2022-09-29T01:43:26;10.35;;;8.13;;
11394;SDS011;5753;54.402;10.220;2022-09-29T01:46:02;13.90;;;10.15;;
11394;SDS011;5753;54.402;10.220;2022-09-29T01:48:41;15.02;;;10.38;;
11394;SDS011;5753;54.402;10.220;2022-09-29T01:51:12;12.85;;;10.15;;
11394;SDS011;5753;54.402;10.220;2022-09-29T01:53:47;16.70;;;9.65;;
11394;SDS011;5753;54.402;10.220;2022-09-29T01:56:18;16.33;;;12.50;;
11394;SDS011;5753;54.402;10.220;2022-09-29T01:58:53;13.88;;;9.55;;
11394;SDS011;5753;54.402;10.220;2022-09-29T02:01:23;17.52;;;10.98;;
11394;SDS011;5753;54.402;10.220;2022-09-29T02:06:28;18.40;;;12.90;;
11394;SDS011;5753;54.402;10.220;2022-09-29T02:09:02;19.02;;;14.32;;
11394;SDS011;5753;54.402;10.220;2022-09-29T02:11:36;16.38;;;11.88;;
11394;SDS011;5753;54.402;10.220;2022-09-29T02:16:56;20.73;;;14.25;;
11394;SDS011;5753;54.402;10.220;2022-09-29T02:19:54;19.92;;;12.63;;
11394;SDS011;5753;54.402;10.220;2022-09-29T02:22:20;18.05;;;13.73;;
11394;SDS011;5753;54.402;10.220;2022-09-29T02:24:47;20.08;;;13.95;;
11394;SDS011;5753;54.402;10.220;2022-09-29T02:27:16;21.42;;;13.65;;
11394;SDS011;5753;54.402;10.220;2022-09-29T02:29:42;19.50;;;12.88;;
11394;SDS011;5753;54.402;10.220;2022-09-29T02:32:09;19.52;;;14.85;;
11394;SDS011;5753;54.402;10.220;2022-09-29T02:34:39;25.17;;;15.25;;
11394;SDS011;5753;54.402;10.220;2022-09-29T02:40:22;17.17;;;11.50;;
11394;SDS011;5753;54.402;10.220;2022-09-29T02:48:43;18.27;;;14.02;;
11394;SDS011;5753;54.402;10.220;2022-09-29T02:51:36;21.73;;;16.40;;
11394;SDS011;5753;54.402;10.220;2022-09-29T03:02:25;21.67;;;14.60;;
11394;SDS011;5753;54.402;10.220;2022-09-29T03:04:51;21.77;;;14.95;;
11394;SDS011;5753;54.402;10.220;2022-09-29T03:07:18;19.92;;;15.20;;
11394;SDS011;5753;54.402;10.220;2022-09-29T03:09:45;21.50;;;16.38;;
11394;SDS011;5753;54.402;10.220;2022-09-29T03:12:11;20.75;;;14.88;;
11394;SDS011;5753;54.402;10.220;2022-09-29T03:14:37;21.67;;;16.67;;
11394;SDS011;5753;54.402;10.220;2022-09-29T03:17:03;20.27;;;15.40;;
11394;SDS011;5753;54.402;10.220;2022-09-29T03:19:29;20.20;;;15.75;;
11394;SDS011;5753;54.402;10.220;2022-09-29T03:21:55;20.23;;;14.85;;
11394;SDS011;5753;54.402;10.220;2022-09-29T03:24:22;21.00;;;15.23;;
11394;SDS011;5753;54.402;10.220;2022-09-29T03:26:48;21.95;;;17.35;;
11394;SDS011;5753;54.402;10.220;2022-09-29T03:29:14;26.33;;;16.70;;
11394;SDS011;5753;54.402;10.220;2022-09-29T03:31:40;23.27;;;17.30;;
11394;SDS011;5753;54.402;10.220;2022-09-29T03:34:06;22.33;;;16.63;;
11394;SDS011;5753;54.402;10.220;2022-09-29T03:36:32;23.20;;;16.25;;
11394;SDS011;5753;54.402;10.220;2022-09-29T03:38:58;24.45;;;18.80;;
11394;SDS011;5753;54.402;10.220;2022-09-29T03:41:24;20.85;;;17.15;;
11394;SDS011;5753;54.402;10.220;2022-09-29T03:43:50;20.80;;;14.90;;
11394;SDS011;5753;54.402;10.220;2022-09-29T03:46:16;24.10;;;14.20;;
11394;SDS011;5753;54.402;10.220;2022-09-29T03:48:42;19.50;;;15.75;;
11394;SDS011;5753;54.402;10.220;2022-09-29T03:51:08;27.25;;;18.52;;
11394;SDS011;5753;54.402;10.220;2022-09-29T03:53:34;24.30;;;16.00;;
11394;SDS011;5753;54.402;10.220;2022-09-29T03:56:01;20.35;;;15.75;;
11394;SDS011;5753;54.402;10.220;2022-09-29T03:58:27;24.85;;;16.92;;
11394;SDS011;5753;54.402;10.220;2022-09-29T04:00:53;24.33;;;17.50;;
11394;SDS011;5753;54.402;10.220;2022-09-29T04:03:19;22.58;;;15.07;;
11394;SDS011;5753;54.402;10.220;2022-09-29T04:05:46;23.25;;;17.20;;
11394;SDS011;5753;54.402;10.220;2022-09-29T04:08:13;21.75;;;18.17;;
11394;SDS011;5753;54.402;10.220;2022-09-29T04:10:40;21.10;;;17.25;;
11394;SDS011;5753;54.402;10.220;2022-09-29T04:13:06;24.35;;;18.35;;
11394;SDS011;5753;54.402;10.220;2022-09-29T04:15:33;20.63;;;16.30;;
11394;SDS011;5753;54.402;10.220;2022-09-29T04:17:59;28.92;;;17.80;;
11394;SDS011;5753;54.402;10.220;2022-09-29T04:20:25;27.77;;;17.27;;
11394;SDS011;5753;54.402;10.220;2022-09-29T04:22:52;25.05;;;16.90;;
11394;SDS011;5753;54.402;10.220;2022-09-29T04:25:18;25.67;;;16.30;;
11394;SDS011;5753;54.402;10.220;2022-09-29T04:27:44;29.42;;;21.77;;
11394;SDS011;5753;54.402;10.220;2022-09-29T04:30:10;25.80;;;17.52;;
11394;SDS011;5753;54.402;10.220;2022-09-29T04:32:37;22.40;;;16.83;;
11394;SDS011;5753;54.402;10.220;2022-09-29T04:35:03;32.80;;;17.27;;
11394;SDS011;5753;54.402;10.220;2022-09-29T04:37:29;22.77;;;15.55;;
11394;SDS011;5753;54.402;10.220;2022-09-29T04:39:55;26.27;;;19.02;;
11394;SDS011;5753;54.402;10.220;2022-09-29T04:42:22;22.67;;;16.52;;
11394;SDS011;5753;54.402;10.220;2022-09-29T04:44:48;28.55;;;18.02;;
11394;SDS011;5753;54.402;10.220;2022-09-29T04:47:14;24.05;;;18.50;;
11394;SDS011;5753;54.402;10.220;2022-09-29T04:49:41;25.67;;;16.60;;
11394;SDS011;5753;54.402;10.220;2022-09-29T04:52:08;30.67;;;18.25;;
11394;SDS011;5753;54.402;10.220;2022-09-29T04:54:36;25.85;;;17.60;;
11394;SDS011;5753;54.402;10.220;2022-09-29T04:57:02;22.17;;;18.67;;
11394;SDS011;5753;54.402;10.220;2022-09-29T04:59:29;26.92;;;15.25;;
11394;SDS011;5753;54.402;10.220;2022-09-29T05:01:55;25.83;;;18.38;;
11394;SDS011;5753;54.402;10.220;2022-09-29T05:04:21;20.08;;;16.42;;
11394;SDS011;5753;54.402;10.220;2022-09-29T05:06:47;20.77;;;17.08;;
11394;SDS011;5753;54.402;10.220;2022-09-29T05:09:13;26.08;;;16.95;;
11394;SDS011;5753;54.402;10.220;2022-09-29T05:11:39;24.80;;;16.48;;
11394;SDS011;5753;54.402;10.220;2022-09-29T05:14:05;21.55;;;16.73;;
11394;SDS011;5753;54.402;10.220;2022-09-29T05:16:32;19.88;;;15.77;;
11394;SDS011;5753;54.402;10.220;2022-09-29T05:18:58;21.25;;;16.70;;
11394;SDS011;5753;54.402;10.220;2022-09-29T05:21:24;19.05;;;15.20;;
11394;SDS011;5753;54.402;10.220;2022-09-29T05:23:50;21.10;;;14.43;;
11394;SDS011;5753;54.402;10.220;2022-09-29T05:26:16;20.85;;;14.35;;
11394;SDS011;5753;54.402;10.220;2022-09-29T05:28:43;21.95;;;14.55;;
11394;SDS011;5753;54.402;10.220;2022-09-29T05:31:10;20.95;;;16.25;;
11394;SDS011;5753;54.402;10.220;2022-09-29T05:33:37;22.13;;;17.88;;
11394;SDS011;5753;54.402;10.220;2022-09-29T05:36:04;22.35;;;16.80;;
11394;SDS011;5753;54.402;10.220;2022-09-29T05:38:31;20.25;;;14.77;;
11394;SDS011;5753;54.402;10.220;2022-09-29T05:41:02;23.08;;;15.07;;
11394;SDS011;5753;54.402;10.220;2022-09-29T05:43:32;21.25;;;15.82;;
11394;SDS011;5753;54.402;10.220;2022-09-29T05:46:05;24.70;;;17.30;;
11394;SDS011;5753;54.402;10.220;2022-09-29T05:48:32;16.83;;;13.00;;
11394;SDS011;5753;54.402;10.220;2022-09-29T05:50:59;22.13;;;15.00;;
11394;SDS011;5753;54.402;10.220;2022-09-29T05:53:32;27.42;;;17.73;;
11394;SDS011;5753;54.402;10.220;2022-09-29T05:55:58;21.15;;;15.77;;
11394;SDS011;5753;54.402;10.220;2022-09-29T05:58:32;18.38;;;15.45;;
11394;SDS011;5753;54.402;10.220;2022-09-29T06:01:03;20.60;;;13.90;;
11394;SDS011;5753;54.402;10.220;2022-09-29T06:03:34;24.27;;;16.33;;
11394;SDS011;5753;54.402;10.220;2022-09-29T06:06:08;20.30;;;16.40;;
11394;SDS011;5753;54.402;10.220;2022-09-29T06:08:39;18.02;;;13.93;;
11394;SDS011;5753;54.402;10.220;2022-09-29T06:11:07;16.33;;;12.63;;
11394;SDS011;5753;54.402;10.220;2022-09-29T06:13:38;21.00;;;15.48;;
11394;SDS011;5753;54.402;10.220;2022-09-29T06:16:06;19.00;;;15.50;;
11394;SDS011;5753;54.402;10.220;2022-09-29T06:18:33;24.85;;;16.10;;
11394;SDS011;5753;54.402;10.220;2022-09-29T06:21:03;21.80;;;17.23;;
11394;SDS011;5753;54.402;10.220;2022-09-29T06:23:30;21.20;;;14.80;;
11394;SDS011;5753;54.402;10.220;2022-09-29T06:25:57;21.98;;;16.38;;
11394;SDS011;5753;54.402;10.220;2022-09-29T06:28:28;18.90;;;14.60;;
11394;SDS011;5753;54.402;10.220;2022-09-29T06:31:02;22.25;;;13.98;;
11394;SDS011;5753;54.402;10.220;2022-09-29T06:33:32;20.60;;;14.82;;
11394;SDS011;5753;54.402;10.220;2022-09-29T06:36:00;20.08;;;16.08;;
11394;SDS011;5753;54.402;10.220;2022-09-29T06:38:47;20.75;;;16.45;;
11394;SDS011;5753;54.402;10.220;2022-09-29T06:41:13;21.40;;;14.13;;
11394;SDS011;5753;54.402;10.220;2022-09-29T06:43:39;21.67;;;15.77;;
11394;SDS011;5753;54.402;10.220;2022-09-29T06:46:05;23.17;;;15.48;;
11394;SDS011;5753;54.402;10.220;2022-09-29T06:48:32;20.98;;;17.65;;
11394;SDS011;5753;54.402;10.220;2022-09-29T06:50:58;20.42;;;16.33;;
11394;SDS011;5753;54.402;10.220;2022-09-29T06:53:24;22.63;;;14.35;;
11394;SDS011;5753;54.402;10.220;2022-09-29T06:55:51;18.77;;;15.02;;
11394;SDS011;5753;54.402;10.220;2022-09-29T06:58:18;26.48;;;17.50;;
11394;SDS011;5753;54.402;10.220;2022-09-29T07:00:44;19.35;;;14.25;;
11394;SDS011;5753;54.402;10.220;2022-09-29T07:03:10;21.70;;;14.77;;
11394;SDS011;5753;54.402;10.220;2022-09-29T07:05:36;20.13;;;16.92;;
11394;SDS011;5753;54.402;10.220;2022-09-29T07:08:02;31.20;;;16.77;;
11394;SDS011;5753;54.402;10.220;2022-09-29T07:10:28;20.13;;;15.70;;
11394;SDS011;5753;54.402;10.220;2022-09-29T07:12:54;20.27;;;15.57;;
11394;SDS011;5753;54.402;10.220;2022-09-29T07:15:20;19.90;;;13.73;;
11394;SDS011;5753;54.402;10.220;2022-09-29T07:17:50;27.10;;;17.80;;
11394;SDS011;5753;54.402;10.220;2022-09-29T07:20:16;21.90;;;16.23;;
11394;SDS011;5753;54.402;10.220;2022-09-29T07:22:45;23.58;;;13.65;;
11394;SDS011;5753;54.402;10.220;2022-09-29T07:25:11;23.08;;;15.65;;
11394;SDS011;5753;54.402;10.220;2022-09-29T07:27:37;22.52;;;14.60;;
11394;SDS011;5753;54.402;10.220;2022-09-29T07:30:03;23.65;;;16.88;;
11394;SDS011;5753;54.402;10.220;2022-09-29T07:32:30;17.55;;;13.88;;
11394;SDS011;5753;54.402;10.220;2022-09-29T07:34:56;16.95;;;13.00;;
11394;SDS011;5753;54.402;10.220;2022-09-29T07:37:23;24.60;;;13.93;;
11394;SDS011;5753;54.402;10.220;2022-09-29T07:39:50;19.65;;;13.27;;
11394;SDS011;5753;54.402;10.220;2022-09-29T07:42:17;13.73;;;11.40;;
11394;SDS011;5753;54.402;10.220;2022-09-29T07:44:45;17.27;;;12.77;;
11394;SDS011;5753;54.402;10.220;2022-09-29T07:47:12;13.82;;;11.23;;
11394;SDS011;5753;54.402;10.220;2022-09-29T07:49:39;15.15;;;10.77;;
11394;SDS011;5753;54.402;10.220;2022-09-29T07:52:05;17.98;;;11.57;;
11394;SDS011;5753;54.402;10.220;2022-09-29T07:54:32;13.02;;;9.65;;
11394;SDS011;5753;54.402;10.220;2022-09-29T07:56:58;15.10;;;9.48;;
11394;SDS011;5753;54.402;10.220;2022-09-29T07:59:27;13.55;;;9.05;;
11394;SDS011;5753;54.402;10.220;2022-09-29T08:01:54;14.73;;;10.40;;
11394;SDS011;5753;54.402;10.220;2022-09-29T08:04:21;16.10;;;11.30;;
11394;SDS011;5753;54.402;10.220;2022-09-29T08:06:47;17.17;;;10.25;;
11394;SDS011;5753;54.402;10.220;2022-09-29T08:09:13;14.27;;;8.90;;
11394;SDS011;5753;54.402;10.220;2022-09-29T08:11:40;10.88;;;9.65;;
11394;SDS011;5753;54.402;10.220;2022-09-29T08:14:07;9.23;;;6.18;;
11394;SDS011;5753;54.402;10.220;2022-09-29T08:16:35;10.43;;;5.72;;
11394;SDS011;5753;54.402;10.220;2022-09-29T08:19:02;10.13;;;7.30;;
11394;SDS011;5753;54.402;10.220;2022-09-29T08:21:29;6.78;;;4.68;;
11394;SDS011;5753;54.402;10.220;2022-09-29T08:24:00;9.68;;;5.78;;
11394;SDS011;5753;54.402;10.220;2022-09-29T08:26:31;5.93;;;4.90;;
11394;SDS011;5753;54.402;10.220;2022-09-29T08:29:02;8.65;;;4.85;;
11394;SDS011;5753;54.402;10.220;2022-09-29T08:31:28;5.10;;;4.28;;
11394;SDS011;5753;54.402;10.220;2022-09-29T08:33:55;8.82;;;5.63;;
11394;SDS011;5753;54.402;10.220;2022-09-29T08:36:23;5.88;;;4.13;;
11394;SDS011;5753;54.402;10.220;2022-09-29T08:38:50;7.00;;;6.10;;
11394;SDS011;5753;54.402;10.220;2022-09-29T08:44:19;5.90;;;5.07;;
11394;SDS011;5753;54.402;10.220;2022-09-29T08:46:52;7.18;;;6.40;;
11394;SDS011;5753;54.402;10.220;2022-09-29T08:49:24;6.23;;;5.13;;
11394;SDS011;5753;54.402;10.220;2022-09-29T08:52:16;6.55;;;4.10;;
11394;SDS011;5753;54.402;10.220;2022-09-29T08:55:00;5.22;;;3.58;;
11394;SDS011;5753;54.402;10.220;2022-09-29T08:57:34;4.32;;;3.65;;
11394;SDS011;5753;54.402;10.220;2022-09-29T09:00:00;4.97;;;4.00;;
11394;SDS011;5753;54.402;10.220;2022-09-29T09:02:32;7.95;;;5.07;;
11394;SDS011;5753;54.402;10.220;2022-09-29T09:05:46;6.18;;;4.57;;
11394;SDS011;5753;54.402;10.220;2022-09-29T09:08:37;6.88;;;4.20;;
11394;SDS011;5753;54.402;10.220;2022-09-29T09:17:14;4.13;;;3.03;;
11394;SDS011;5753;54.402;10.220;2022-09-29T09:25:03;3.17;;;2.88;;
11394;SDS011;5753;54.402;10.220;2022-09-29T09:27:45;3.22;;;2.55;;
11394;SDS011;5753;54.402;10.220;2022-09-29T09:30:20;2.80;;;2.58;;
11394;SDS011;5753;54.402;10.220;2022-09-29T09:32:57;2.38;;;2.00;;
11394;SDS011;5753;54.402;10.220;2022-09-29T09:38:03;1.83;;;1.50;;
11394;SDS011;5753;54.402;10.220;2022-09-29T09:40:40;1.33;;;1.00;;
11394;SDS011;5753;54.402;10.220;2022-09-29T09:43:15;2.03;;;1.88;;
11394;SDS011;5753;54.402;10.220;2022-09-29T09:45:50;3.05;;;2.05;;
11394;SDS011;5753;54.402;10.220;2022-09-29T09:48:27;1.90;;;1.23;;
11394;SDS011;5753;54.402;10.220;2022-09-29T09:51:00;3.53;;;2.55;;
11394;SDS011;5753;54.402;10.220;2022-09-29T09:53:41;2.88;;;2.28;;
11394;SDS011;5753;54.402;10.220;2022-09-29T10:01:35;1.13;;;1.00;;
11394;SDS011;5753;54.402;10.220;2022-09-29T10:04:01;3.17;;;1.50;;
11394;SDS011;5753;54.402;10.220;2022-09-29T10:06:27;6.45;;;2.75;;
11394;SDS011;5753;54.402;10.220;2022-09-29T10:08:54;1.25;;;1.10;;
11394;SDS011;5753;54.402;10.220;2022-09-29T10:11:24;1.15;;;1.05;;
11394;SDS011;5753;54.402;10.220;2022-09-29T10:14:02;0.85;;;0.75;;
11394;SDS011;5753;54.402;10.220;2022-09-29T10:16:56;1.13;;;0.95;;
11394;SDS011;5753;54.402;10.220;2022-09-29T10:22:24;0.60;;;0.55;;
11394;SDS011;5753;54.402;10.220;2022-09-29T10:24:52;0.70;;;0.70;;
11394;SDS011;5753;54.402;10.220;2022-09-29T10:27:29;2.45;;;0.82;;
11394;SDS011;5753;54.402;10.220;2022-09-29T10:29:56;1.30;;;0.63;;
11394;SDS011;5753;54.402;10.220;2022-09-29T10:32:30;0.45;;;0.32;;
11394;SDS011;5753;54.402;10.220;2022-09-29T10:35:22;0.80;;;0.47;;
11394;SDS011;5753;54.402;10.220;2022-09-29T10:37:57;2.45;;;0.82;;
11394;SDS011;5753;54.402;10.220;2022-09-29T10:40:26;2.00;;;1.63;;
11394;SDS011;5753;54.402;10.220;2022-09-29T10:42:53;3.60;;;1.45;;
11394;SDS011;5753;54.402;10.220;2022-09-29T10:45:22;0.38;;;0.38;;
11394;SDS011;5753;54.402;10.220;2022-09-29T10:50:28;1.98;;;0.98;;
11394;SDS011;5753;54.402;10.220;2022-09-29T10:52:57;2.38;;;0.32;;
11394;SDS011;5753;54.402;10.220;2022-09-29T10:55:28;0.63;;;0.50;;
11394;SDS011;5753;54.402;10.220;2022-09-29T10:58:15;0.50;;;0.50;;
11394;SDS011;5753;54.402;10.220;2022-09-29T11:01:13;0.80;;;0.55;;
11394;SDS011;5753;54.402;10.220;2022-09-29T11:06:30;0.98;;;0.85;;
11394;SDS011;5753;54.402;10.220;2022-09-29T11:08:59;0.47;;;0.47;;
11394;SDS011;5753;54.402;10.220;2022-09-29T11:11:29;1.17;;;0.88;;
11394;SDS011;5753;54.402;10.220;2022-09-29T11:13:57;1.17;;;0.80;;
11394;SDS011;5753;54.402;10.220;2022-09-29T11:16:26;1.83;;;1.00;;
11394;SDS011;5753;54.402;10.220;2022-09-29T11:18:58;1.90;;;0.88;;
11394;SDS011;5753;54.402;10.220;2022-09-29T11:30:13;1.80;;;1.30;;
11394;SDS011;5753;54.402;10.220;2022-09-29T11:38:26;3.90;;;1.10;;
11394;SDS011;5753;54.402;10.220;2022-09-29T11:44:15;4.90;;;1.30;;
11394;SDS011;5753;54.402;10.220;2022-09-29T12:00:17;13.55;;;1.73;;
11394;SDS011;5753;54.402;10.220;2022-09-29T12:08:09;5.93;;;0.93;;
11394;SDS011;5753;54.402;10.220;2022-09-29T12:13:54;3.25;;;1.13;;
11394;SDS011;5753;54.402;10.220;2022-09-29T12:16:29;4.00;;;1.17;;
11394;SDS011;5753;54.402;10.220;2022-09-29T12:19:02;1.70;;;1.30;;
11394;SDS011;5753;54.402;10.220;2022-09-29T12:21:40;2.80;;;1.85;;
11394;SDS011;5753;54.402;10.220;2022-09-29T12:24:15;2.47;;;2.28;;
11394;SDS011;5753;54.402;10.220;2022-09-29T12:26:52;2.42;;;1.50;;
11394;SDS011;5753;54.402;10.220;2022-09-29T12:31:55;2.17;;;2.08;;
11394;SDS011;5753;54.402;10.220;2022-09-29T12:40:05;3.20;;;2.20;;
11394;SDS011;5753;54.402;10.220;2022-09-29T12:43:00;2.33;;;2.00;;
11394;SDS011;5753;54.402;10.220;2022-09-29T12:45:30;8.45;;;1.40;;
11394;SDS011;5753;54.402;10.220;2022-09-29T12:50:56;2.05;;;1.85;;
11394;SDS011;5753;54.402;10.220;2022-09-29T12:53:28;5.55;;;1.95;;
11394;SDS011;5753;54.402;10.220;2022-09-29T12:56:04;3.45;;;2.67;;
11394;SDS011;5753;54.402;10.220;2022-09-29T12:58:53;5.38;;;2.30;;
11394;SDS011;5753;54.402;10.220;2022-09-29T13:01:32;2.25;;;1.52;;
11394;SDS011;5753;54.402;10.220;2022-09-29T13:26:49;4.88;;;3.13;;
11394;SDS011;5753;54.402;10.220;2022-09-29T13:29:37;2.28;;;2.00;;
11394;SDS011;5753;54.402;10.220;2022-09-29T13:32:11;2.08;;;1.88;;
11394;SDS011;5753;54.402;10.220;2022-09-29T13:34:38;1.85;;;1.75;;
11394;SDS011;5753;54.402;10.220;2022-09-29T13:37:14;1.77;;;1.67;;
11394;SDS011;5753;54.402;10.220;2022-09-29T13:40:04;3.22;;;1.67;;
11394;SDS011;5753;54.402;10.220;2022-09-29T13:47:49;2.03;;;1.85;;
11394;SDS011;5753;54.402;10.220;2022-09-29T13:53:47;1.63;;;1.52;;
11394;SDS011;5753;54.402;10.220;2022-09-29T13:56:10;1.75;;;1.42;;
11394;SDS011;5753;54.402;10.220;2022-09-29T14:01:09;1.85;;;1.40;;
11394;SDS011;5753;54.402;10.220;2022-09-29T14:03:42;1.80;;;1.67;;
11394;SDS011;5753;54.402;10.220;2022-09-29T14:11:30;0.65;;;0.63;;
11394;SDS011;5753;54.402;10.220;2022-09-29T14:14:05;2.47;;;1.30;;
11394;SDS011;5753;54.402;10.220;2022-09-29T14:19:22;2.95;;;1.15;;
11394;SDS011;5753;54.402;10.220;2022-09-29T14:22:00;1.75;;;1.65;;
11394;SDS011;5753;54.402;10.220;2022-09-29T14:24:46;3.13;;;2.40;;
11394;SDS011;5753;54.402;10.220;2022-09-29T14:32:36;5.13;;;1.45;;
11394;SDS011;5753;54.402;10.220;2022-09-29T14:38:20;2.95;;;2.42;;
11394;SDS011;5753;54.402;10.220;2022-09-29T14:55:30;3.30;;;2.25;;
11394;SDS011;5753;54.402;10.220;2022-09-29T15:04:08;1.75;;;1.63;;
11394;SDS011;5753;54.402;10.220;2022-09-29T15:06:44;4.40;;;2.63;;
11394;SDS011;5753;54.402;10.220;2022-09-29T15:09:16;10.18;;;6.57;;
11394;SDS011;5753;54.402;10.220;2022-09-29T15:14:25;5.03;;;4.57;;
11394;SDS011;5753;54.402;10.220;2022-09-29T15:19:26;5.40;;;2.63;;
11394;SDS011;5753;54.402;10.220;2022-09-29T15:25:05;5.70;;;4.68;;
11394;SDS011;5753;54.402;10.220;2022-09-29T15:27:54;16.20;;;9.52;;
11394;SDS011;5753;54.402;10.220;2022-09-29T15:30:29;5.70;;;4.93;;
11394;SDS011;5753;54.402;10.220;2022-09-29T15:33:06;4.15;;;3.50;;
11394;SDS011;5753;54.402;10.220;2022-09-29T15:40:42;2.40;;;2.05;;
11394;SDS011;5753;54.402;10.220;2022-09-29T15:43:26;8.07;;;6.05;;
11394;SDS011;5753;54.402;10.220;2022-09-29T15:45:55;4.97;;;3.33;;
11394;SDS011;5753;54.402;10.220;2022-09-29T15:48:24;4.88;;;3.50;;
11394;SDS011;5753;54.402;10.220;2022-09-29T15:50:51;6.63;;;4.63;;
11394;SDS011;5753;54.402;10.220;2022-09-29T15:53:22;4.55;;;3.58;;
11394;SDS011;5753;54.402;10.220;2022-09-29T15:55:51;5.70;;;3.78;;
11394;SDS011;5753;54.402;10.220;2022-09-29T16:03:24;7.18;;;5.28;;
11394;SDS011;5753;54.402;10.220;2022-09-29T16:08:37;7.13;;;5.85;;
11394;SDS011;5753;54.402;10.220;2022-09-29T16:11:13;7.20;;;6.50;;
11394;SDS011;5753;54.402;10.220;2022-09-29T16:13:45;5.13;;;4.65;;
11394;SDS011;5753;54.402;10.220;2022-09-29T16:16:14;4.53;;;4.07;;
11394;SDS011;5753;54.402;10.220;2022-09-29T16:18:42;13.20;;;7.72;;
11394;SDS011;5753;54.402;10.220;2022-09-29T16:21:12;8.13;;;5.93;;
11394;SDS011;5753;54.402;10.220;2022-09-29T16:26:43;7.95;;;4.05;;
11394;SDS011;5753;54.402;10.220;2022-09-29T16:31:42;3.63;;;3.10;;
11394;SDS011;5753;54.402;10.220;2022-09-29T16:34:20;4.15;;;3.30;;
11394;SDS011;5753;54.402;10.220;2022-09-29T16:37:00;7.63;;;6.50;;
11394;SDS011;5753;54.402;10.220;2022-09-29T16:39:43;12.10;;;5.20;;
11394;SDS011;5753;54.402;10.220;2022-09-29T16:42:22;4.72;;;4.00;;
11394;SDS011;5753;54.402;10.220;2022-09-29T16:44:51;7.90;;;4.45;;
11394;SDS011;5753;54.402;10.220;2022-09-29T16:47:20;6.70;;;4.00;;
11394;SDS011;5753;54.402;10.220;2022-09-29T16:49:52;2.92;;;2.70;;
11394;SDS011;5753;54.402;10.220;2022-09-29T16:52:28;3.75;;;2.88;;
11394;SDS011;5753;54.402;10.220;2022-09-29T16:55:24;7.55;;;5.05;;
11394;SDS011;5753;54.402;10.220;2022-09-29T16:58:02;4.55;;;3.35;;
11394;SDS011;5753;54.402;10.220;2022-09-29T17:00:33;4.38;;;3.63;;
11394;SDS011;5753;54.402;10.220;2022-09-29T17:03:03;4.30;;;3.55;;
11394;SDS011;5753;54.402;10.220;2022-09-29T17:05:32;4.38;;;4.07;;
11394;SDS011;5753;54.402;10.220;2022-09-29T17:08:02;5.35;;;3.85;;
11394;SDS011;5753;54.402;10.220;2022-09-29T17:10:29;3.03;;;2.60;;
11394;SDS011;5753;54.402;10.220;2022-09-29T17:12:55;4.00;;;3.65;;
11394;SDS011;5753;54.402;10.220;2022-09-29T17:15:22;5.10;;;3.35;;
11394;SDS011;5753;54.402;10.220;2022-09-29T17:17:49;6.75;;;4.47;;
11394;SDS011;5753;54.402;10.220;2022-09-29T17:20:20;7.63;;;4.97;;
11394;SDS011;5753;54.402;10.220;2022-09-29T17:22:53;4.43;;;3.45;;
11394;SDS011;5753;54.402;10.220;2022-09-29T17:25:20;6.88;;;4.28;;
11394;SDS011;5753;54.402;10.220;2022-09-29T17:27:47;7.82;;;6.82;;
11394;SDS011;5753;54.402;10.220;2022-09-29T17:30:32;15.75;;;7.15;;
11394;SDS011;5753;54.402;10.220;2022-09-29T17:32:58;5.07;;;4.47;;
11394;SDS011;5753;54.402;10.220;2022-09-29T17:35:25;5.70;;;5.10;;
11394;SDS011;5753;54.402;10.220;2022-09-29T17:37:53;4.75;;;4.05;;
11394;SDS011;5753;54.402;10.220;2022-09-29T17:40:24;5.28;;;3.70;;
11394;SDS011;5753;54.402;10.220;2022-09-29T17:42:57;6.78;;;4.57;;
11394;SDS011;5753;54.402;10.220;2022-09-29T17:45:24;4.38;;;3.97;;
11394;SDS011;5753;54.402;10.220;2022-09-29T17:47:51;4.75;;;3.85;;
11394;SDS011;5753;54.402;10.220;2022-09-29T17:52:49;5.13;;;4.50;;
11394;SDS011;5753;54.402;10.220;2022-09-29T17:55:15;5.25;;;4.03;;
11394;SDS011;5753;54.402;10.220;2022-09-29T17:57:42;6.43;;;3.95;;
11394;SDS011;5753;54.402;10.220;2022-09-29T18:00:13;8.95;;;4.40;;
11394;SDS011;5753;54.402;10.220;2022-09-29T18:02:41;4.70;;;4.30;;
11394;SDS011;5753;54.402;10.220;2022-09-29T18:05:08;4.90;;;4.43;;
11394;SDS011;5753;54.402;10.220;2022-09-29T18:07:35;6.13;;;4.78;;
11394;SDS011;5753;54.402;10.220;2022-09-29T18:10:01;5.22;;;4.78;;
11394;SDS011;5753;54.402;10.220;2022-09-29T18:12:34;4.75;;;4.00;;
11394;SDS011;5753;54.402;10.220;2022-09-29T18:15:00;5.43;;;3.92;;
11394;SDS011;5753;54.402;10.220;2022-09-29T18:17:26;5.28;;;4.70;;
11394;SDS011;5753;54.402;10.220;2022-09-29T18:19:52;4.78;;;4.38;;
11394;SDS011;5753;54.402;10.220;2022-09-29T18:22:18;20.65;;;6.47;;
11394;SDS011;5753;54.402;10.220;2022-09-29T18:24:45;4.82;;;3.97;;
11394;SDS011;5753;54.402;10.220;2022-09-29T18:27:11;6.97;;;4.40;;
11394;SDS011;5753;54.402;10.220;2022-09-29T18:29:38;5.15;;;4.00;;
11394;SDS011;5753;54.402;10.220;2022-09-29T18:32:04;10.20;;;5.55;;